CYYJ

Victoria International Airport

Victoria, , Canada
TAF CYYJ 182338Z 1900/1924 13015G25KT P6SM SCT020 BKN070 TEMPO 1900/1902 P6SM -RA BKN020 FM190200 12015G25KT 6SM -RA BR SCT012 OVC025 TEMPO 1902/1911 3SM -RA BR OVC008 FM191100 21012G22KT P6SM SCT020 SCT040 TEMPO 1915/1924 P6SM -SHRA BKN020 OVC040 RMK NXT FCST BY 190600Z
Issued Valid From Valid To
Jan-18 @ 23:38 UTC
(3 hours ago)
Jan-19 @ 00:00 UTC
(2 hours ago)
Jan-20 @ 00:00 UTC
(in 22 hours)
Expired Click to View Jan-19 @ 00:00 to Jan-19 @ 02:00
TAF CYYJ 182338Z 1900/1924 13015G25KT P6SM SCT020 BKN070
Wind Visibility Clouds
130° at 15 knots
 Gusting to 25 knots
Greater than 6 miles
  • Scattered at 2,000' AGL
  • Broken at 7,000' AGL
Expired Click to View Jan-19 @ 00:00 to Jan-19 @ 02:00
TEMPO 1900/1902 P6SM -RA BKN020
Visibility Clouds Conditions
Greater than 6 miles
  • Broken at 2,000' AGL
  • Light Rain
From Jan-19 @ 02:00 to Jan-19 @ 11:00
FM190200 12015G25KT 6SM -RA BR SCT012 OVC025
Wind Visibility Clouds Conditions
120° at 15 knots
 Gusting to 25 knots
6 miles
  • Scattered at 1,200' AGL
  • Overcast at 2,500' AGL
  • Light Rain
  • Mist
Temporary Jan-19 @ 02:00 to Jan-19 @ 11:00
TEMPO 1902/1911 3SM -RA BR OVC008
Visibility Clouds Conditions
3 miles
  • Overcast at 800' AGL
  • Light Rain
  • Mist
From Jan-19 @ 11:00 to Jan-20 @ 00:00
FM191100 21012G22KT P6SM SCT020 SCT040
Wind Visibility Clouds
210° at 12 knots
 Gusting to 22 knots
Greater than 6 miles
  • Scattered at 2,000' AGL
  • Scattered at 4,000' AGL
Temporary Jan-19 @ 15:00 to Jan-20 @ 00:00
TEMPO 1915/1924 P6SM -SHRA BKN020 OVC040 RMK NXT FCST BY 190600Z
Visibility Clouds Conditions
Greater than 6 miles
  • Broken at 2,000' AGL
  • Overcast at 4,000' AGL
  • Light Rain
TAF CYYJ 182338Z 1900/1924 13015G25KT P6SM SCT020 BKN070 TEMPO 1900/1902 P6SM -RA BKN020 FM190200 12015G25KT 6SM -RA BR SCT012 OVC025 TEMPO 1902/1911 3SM -RA BR OVC008 FM191100 21012G22KT P6SM SCT020 SCT040 TEMPO 1915/1924 P6SM -SHRA BKN020 OVC040 RMK NXT FCST BY 190600Z
Issued Jan-18 @ 23:38 UTC
(3 hours ago)
Valid From Jan-19 @ 00:00 UTC
(2 hours ago)
Valid To Jan-20 @ 00:00 UTC
(in 22 hours)
Jan-19 @ 00:00 - Jan-19 @ 02:00
Wind Visibility
130° at 15 knots
 Gusting to 25 knots
Greater than 6 miles
Clouds
  • Scattered at 2,000' AGL
  • Broken at 7,000' AGL
Jan-19 @ 00:00 - Jan-19 @ 02:00
Clouds
  • Broken at 2,000' AGL
Conditions
  • Light Rain
From Jan-19 @ 02:00 - Jan-19 @ 11:00
Wind Visibility
120° at 15 knots
 Gusting to 25 knots
6 miles
Clouds
  • Scattered at 1,200' AGL
  • Overcast at 2,500' AGL
Conditions
  • Light Rain
  • Mist
Temporary Jan-19 @ 02:00 - Jan-19 @ 11:00
Clouds
  • Overcast at 800' AGL
Conditions
  • Light Rain
  • Mist
From Jan-19 @ 11:00 - Jan-20 @ 00:00
Wind Visibility
210° at 12 knots
 Gusting to 22 knots
Greater than 6 miles
Clouds
  • Scattered at 2,000' AGL
  • Scattered at 4,000' AGL
Temporary Jan-19 @ 15:00 - Jan-20 @ 00:00
Clouds
  • Broken at 2,000' AGL
  • Overcast at 4,000' AGL
Conditions
  • Light Rain